createdAt,value
2019-05-26T00:23:08.441Z,17.03
2019-05-26T00:34:13.557Z,16.90
2019-05-26T00:40:08.647Z,12.25
2019-05-26T00:46:02.595Z,13.23
2019-05-26T00:51:37.732Z,14.07
2019-05-26T00:57:40.772Z,14.13
2019-05-26T01:03:42.532Z,13.32
2019-05-26T01:15:13.638Z,12.40
2019-05-26T01:20:48.279Z,13.60
2019-05-26T01:26:38.047Z,13.10
2019-05-26T01:32:08.526Z,12.97
2019-05-26T01:39:30.536Z,13.37
2019-05-26T01:50:26.905Z,13.57
2019-05-26T02:07:50.609Z,13.87
2019-05-26T02:13:21.306Z,14.60
2019-05-26T02:24:03.969Z,10.77
2019-05-26T02:36:21.792Z,20.37
2019-05-26T02:42:02.775Z,19.10
2019-05-26T02:47:35.667Z,9.87
2019-05-26T02:53:17.074Z,11.37
2019-05-26T02:58:59.539Z,13.25
2019-05-26T03:10:49.419Z,13.10
2019-05-26T03:16:33.191Z,13.45
2019-05-26T03:22:25.147Z,12.03
2019-05-26T03:28:11.887Z,12.20
2019-05-26T03:33:48.568Z,12.50
2019-05-26T03:39:07.697Z,10.23
2019-05-26T03:44:47.474Z,12.13
2019-05-26T03:50:17.370Z,14.57
2019-05-26T04:02:13.040Z,13.97
2019-05-26T04:14:43.425Z,12.43
2019-05-26T04:20:01.643Z,10.63
2019-05-26T04:25:37.126Z,12.50
2019-05-26T04:31:28.803Z,11.60
2019-05-26T04:37:10.464Z,11.77
2019-05-26T04:42:28.982Z,9.00
2019-05-26T04:48:34.645Z,8.33
2019-05-26T04:54:41.740Z,11.33
2019-05-26T05:00:00.436Z,14.10
2019-05-26T05:05:26.923Z,11.47
2019-05-26T05:11:11.363Z,12.17
2019-05-26T05:16:41.967Z,9.57
2019-05-26T05:22:25.575Z,8.10
2019-05-26T05:28:09.472Z,22.27
2019-05-26T05:39:49.165Z,9.57
2019-05-26T05:45:33.694Z,8.00
2019-05-26T05:51:21.241Z,2.95
2019-05-26T05:57:07.080Z,3.98
2019-05-26T06:03:11.622Z,2.97
2019-05-26T06:08:20.726Z,5.75
2019-05-26T06:13:52.303Z,3.50
2019-05-26T06:19:25.874Z,3.05
2019-05-26T06:25:02.521Z,3.87
2019-05-26T06:31:04.131Z,3.42
2019-05-26T06:36:41.206Z,3.22
2019-05-26T06:42:26.779Z,3.92
2019-05-26T06:47:58.923Z,2.90
2019-05-26T06:54:03.032Z,3.15
2019-05-26T07:06:26.024Z,2.43
2019-05-26T07:18:03.781Z,2.98
2019-05-26T07:23:37.979Z,4.95
2019-05-26T07:29:29.522Z,3.20
2019-05-26T07:34:52.033Z,3.83
2019-05-26T07:40:24.387Z,3.47
2019-05-26T07:46:00.325Z,4.93
2019-05-26T07:51:29.569Z,10.95
2019-05-26T07:57:26.648Z,5.10
2019-05-26T08:09:19.359Z,10.53
2019-05-26T08:21:19.447Z,9.20
2019-05-26T08:26:39.789Z,7.80
2019-05-26T08:37:35.983Z,7.62
2019-05-26T08:43:00.437Z,6.08
2019-05-26T08:48:51.413Z,7.65
2019-05-26T08:54:32.516Z,11.48
2019-05-26T09:06:02.890Z,14.35
2019-05-26T09:11:37.510Z,11.25
2019-05-26T09:17:27.039Z,9.60
2019-05-26T09:23:00.089Z,8.50
2019-05-26T09:28:34.487Z,6.35
2019-05-26T09:34:04.467Z,6.85
2019-05-26T09:39:34.256Z,5.25
2019-05-26T09:45:16.671Z,5.70
2019-05-26T09:57:33.199Z,6.50
2019-05-26T10:03:14.780Z,6.78
2019-05-26T10:09:02.424Z,3.15
2019-05-26T10:20:58.811Z,5.03
2019-05-26T10:38:27.754Z,2.50
2019-05-26T10:43:58.465Z,3.57
2019-05-26T10:49:40.484Z,1.87
2019-05-26T11:01:54.124Z,1.10
2019-05-26T11:08:26.060Z,2.08
2019-05-26T11:14:02.351Z,1.27
2019-05-26T11:18:55.738Z,0.95
2019-05-26T11:24:00.292Z,1.37
2019-05-26T11:29:05.409Z,2.42
2019-05-26T11:34:10.427Z,2.77
2019-05-26T11:39:15.218Z,1.87
2019-05-26T11:44:20.030Z,1.67
2019-05-26T11:49:26.001Z,3.33
2019-05-26T11:54:34.277Z,1.92
2019-05-26T11:59:37.367Z,3.60
2019-05-26T12:04:42.086Z,4.08
2019-05-26T12:09:47.342Z,3.50
2019-05-26T12:14:51.855Z,2.42
2019-05-26T12:19:56.804Z,1.00
2019-05-26T12:25:01.171Z,3.70
2019-05-26T12:30:07.593Z,2.17
2019-05-26T12:35:13.570Z,3.40
2019-05-26T12:40:18.596Z,1.20
2019-05-26T12:45:23.284Z,5.95
2019-05-26T12:50:27.797Z,1.25
2019-05-26T12:55:32.622Z,1.70
2019-05-26T13:00:48.243Z,0.55
2019-05-26T13:05:44.332Z,2.55
2019-05-26T13:10:49.167Z,1.32
2019-05-26T13:15:54.422Z,1.40
2019-05-26T13:20:59.327Z,0.42
2019-05-26T13:26:04.049Z,4.67
2019-05-26T13:31:08.432Z,1.10
2019-05-26T13:36:13.408Z,0.50
2019-05-26T13:41:18.046Z,1.30
2019-05-26T13:46:22.926Z,1.20
2019-05-26T13:51:29.976Z,4.55
2019-05-26T13:56:34.747Z,0.47
2019-05-26T14:01:39.552Z,0.45
2019-05-26T14:06:44.214Z,1.40
2019-05-26T14:11:48.569Z,19.40
2019-05-26T14:16:55.178Z,16.25
2019-05-26T14:22:00.145Z,0.78
2019-05-26T14:27:04.896Z,1.20
2019-05-26T14:32:10.771Z,5.28
2019-05-26T14:37:15.787Z,17.67
2019-05-26T14:42:20.497Z,7.50
2019-05-26T14:47:25.565Z,1.98
2019-05-26T14:52:30.253Z,9.95
2019-05-26T14:57:34.744Z,8.43
2019-05-26T15:02:39.546Z,35.50
2019-05-26T15:07:44.610Z,2.65
2019-05-26T15:12:49.210Z,12.88
2019-05-26T15:17:56.231Z,12.47
2019-05-26T15:23:01.094Z,8.53
2019-05-26T15:28:05.688Z,3.77
2019-05-26T15:33:10.240Z,3.25
2019-05-26T15:38:14.972Z,5.72
2019-05-26T15:43:19.473Z,7.37
2019-05-26T15:48:24.179Z,1.00
2019-05-26T15:53:28.751Z,4.12
2019-05-26T15:58:33.424Z,5.90
2019-05-26T16:03:38.499Z,16.00
2019-05-26T16:08:45.918Z,6.22
2019-05-26T16:13:50.972Z,2.25
2019-05-26T16:18:55.788Z,4.60
2019-05-26T16:24:00.402Z,7.83
2019-05-26T16:29:05.368Z,2.50
2019-05-26T16:34:10.185Z,5.83
2019-05-26T16:39:16.161Z,2.25
2019-05-26T16:44:20.906Z,3.35
2019-05-26T16:49:26.664Z,2.00
2019-05-26T16:54:31.486Z,2.67
2019-05-26T16:59:36.494Z,1.63
2019-05-26T17:04:41.638Z,0.72
2019-05-26T17:09:46.438Z,1.23
2019-05-26T17:14:51.306Z,1.10
2019-05-26T17:19:57.586Z,0.70
2019-05-26T17:25:02.426Z,1.72
2019-05-26T17:30:07.873Z,1.10
2019-05-26T17:35:13.496Z,0.98
2019-05-26T17:40:19.952Z,0.50
2019-05-26T17:45:25.343Z,0.95
2019-05-26T17:50:30.558Z,1.62
2019-05-26T17:55:35.176Z,0.75
2019-05-26T18:00:41.203Z,1.00
2019-05-26T18:05:45.754Z,3.17
2019-05-26T18:10:50.642Z,1.17
2019-05-26T18:15:55.582Z,0.50
2019-05-26T18:21:00.457Z,1.12
2019-05-26T18:26:05.712Z,1.05
2019-05-26T18:31:11.141Z,3.43
2019-05-26T18:36:15.658Z,1.50
2019-05-26T18:41:20.282Z,2.42
2019-05-26T18:46:25.201Z,2.08
2019-05-26T18:51:31.244Z,1.22
2019-05-26T18:56:36.571Z,1.30
2019-05-26T19:01:41.590Z,3.60
2019-05-26T19:06:46.186Z,2.17
2019-05-26T19:11:50.792Z,2.17
2019-05-26T19:16:55.890Z,1.50
2019-05-26T19:22:01.410Z,1.65
2019-05-26T19:27:06.467Z,2.30
2019-05-26T19:32:11.437Z,2.72
2019-05-26T19:37:16.392Z,1.32
2019-05-26T19:42:21.046Z,2.08
2019-05-26T19:47:26.108Z,1.17
2019-05-26T19:52:31.999Z,1.62
2019-05-26T19:57:36.484Z,1.53
2019-05-26T20:02:41.446Z,2.15
2019-05-26T20:07:46.320Z,1.57
2019-05-26T20:12:50.963Z,1.80
2019-05-26T20:17:55.998Z,1.72
2019-05-26T20:23:01.346Z,2.25
2019-05-26T20:28:06.294Z,2.53
2019-05-26T20:33:12.148Z,1.72
2019-05-26T20:38:19.511Z,2.90
2019-05-26T20:43:25.132Z,2.60
2019-05-26T20:48:30.113Z,3.25
2019-05-26T20:53:34.561Z,2.43
2019-05-26T20:58:39.356Z,2.62
2019-05-26T21:03:43.955Z,4.30
2019-05-26T21:08:49.074Z,2.50
2019-05-26T21:13:53.704Z,4.58
2019-05-26T21:18:58.489Z,2.87
2019-05-26T21:24:03.417Z,3.80
2019-05-26T21:29:08.236Z,3.60
2019-05-26T21:34:13.052Z,3.00
2019-05-26T21:39:18.214Z,4.20
2019-05-26T21:44:22.975Z,3.97
2019-05-26T21:49:27.784Z,2.60
2019-05-26T21:54:32.489Z,2.77
2019-05-26T21:59:37.390Z,3.10
2019-05-26T22:04:41.827Z,2.50
2019-05-26T22:09:46.698Z,2.50
2019-05-26T22:14:51.419Z,2.20
2019-05-26T22:19:56.181Z,3.77
2019-05-26T22:25:00.705Z,2.77
2019-05-26T22:30:06.307Z,2.97
2019-05-26T22:35:11.516Z,3.35
2019-05-26T22:40:16.389Z,3.63
2019-05-26T22:45:21.105Z,3.62
2019-05-26T22:50:26.173Z,4.60
2019-05-26T22:55:32.754Z,2.40
2019-05-26T23:00:37.475Z,3.70
2019-05-26T23:05:42.112Z,4.40
2019-05-26T23:10:46.508Z,5.53
2019-05-26T23:15:51.189Z,3.13
2019-05-26T23:20:56.231Z,3.67
2019-05-26T23:26:01.009Z,4.13
2019-05-26T23:31:05.828Z,3.33
2019-05-26T23:36:10.288Z,3.10
2019-05-26T23:41:15.156Z,3.73
2019-05-26T23:46:19.783Z,4.30
2019-05-26T23:51:24.554Z,3.37
2019-05-26T23:56:29.333Z,5.77
